sensor_id;sensor_type;location;lat;lon;timestamp;temperature;humidity
20182;DHT22;10250;50.756;6.172;2022-07-23T00:01:38;16.80;99.90
20182;DHT22;10250;50.756;6.172;2022-07-23T00:03:38;16.90;99.90
20182;DHT22;10250;50.756;6.172;2022-07-23T00:05:39;16.90;99.90
20182;DHT22;10250;50.756;6.172;2022-07-23T00:07:40;16.80;99.90
20182;DHT22;10250;50.756;6.172;2022-07-23T00:09:41;16.70;99.90
20182;DHT22;10250;50.756;6.172;2022-07-23T00:11:41;16.70;99.90
20182;DHT22;10250;50.756;6.172;2022-07-23T00:13:42;16.70;99.90
20182;DHT22;10250;50.756;6.172;2022-07-23T00:15:43;16.70;99.90
20182;DHT22;10250;50.756;6.172;2022-07-23T00:17:44;16.70;99.90
20182;DHT22;10250;50.756;6.172;2022-07-23T00:19:44;16.60;99.90
20182;DHT22;10250;50.756;6.172;2022-07-23T00:21:45;16.50;99.90
20182;DHT22;10250;50.756;6.172;2022-07-23T00:23:46;16.70;99.90
20182;DHT22;10250;50.756;6.172;2022-07-23T00:25:46;16.90;99.90
20182;DHT22;10250;50.756;6.172;2022-07-23T00:27:47;16.90;99.90
20182;DHT22;10250;50.756;6.172;2022-07-23T00:29:47;16.80;99.90
20182;DHT22;10250;50.756;6.172;2022-07-23T00:31:48;16.80;99.90
20182;DHT22;10250;50.756;6.172;2022-07-23T00:33:49;16.90;99.90
20182;DHT22;10250;50.756;6.172;2022-07-23T00:35:49;17.00;99.90
20182;DHT22;10250;50.756;6.172;2022-07-23T00:37:50;17.00;99.90
20182;DHT22;10250;50.756;6.172;2022-07-23T00:39:50;17.00;99.90
20182;DHT22;10250;50.756;6.172;2022-07-23T00:41:51;17.00;99.90
20182;DHT22;10250;50.756;6.172;2022-07-23T00:43:52;16.90;99.90
20182;DHT22;10250;50.756;6.172;2022-07-23T00:45:53;16.90;99.90
20182;DHT22;10250;50.756;6.172;2022-07-23T00:47:53;16.90;99.90
20182;DHT22;10250;50.756;6.172;2022-07-23T00:49:54;16.90;99.90
20182;DHT22;10250;50.756;6.172;2022-07-23T00:51:55;16.80;99.90
20182;DHT22;10250;50.756;6.172;2022-07-23T00:53:56;16.80;99.90
20182;DHT22;10250;50.756;6.172;2022-07-23T00:55:57;16.70;99.90
20182;DHT22;10250;50.756;6.172;2022-07-23T00:57:59;16.60;99.90
20182;DHT22;10250;50.756;6.172;2022-07-23T01:00:01;16.70;99.90
20182;DHT22;10250;50.756;6.172;2022-07-23T01:02:01;16.70;99.90
20182;DHT22;10250;50.756;6.172;2022-07-23T01:04:02;16.60;99.90
20182;DHT22;10250;50.756;6.172;2022-07-23T01:06:03;16.50;99.90
20182;DHT22;10250;50.756;6.172;2022-07-23T01:08:05;16.50;99.90
20182;DHT22;10250;50.756;6.172;2022-07-23T01:10:06;16.40;99.90
20182;DHT22;10250;50.756;6.172;2022-07-23T01:12:27;16.30;99.90
20182;DHT22;10250;50.756;6.172;2022-07-23T01:14:27;16.40;99.90
20182;DHT22;10250;50.756;6.172;2022-07-23T01:16:28;16.40;99.90
20182;DHT22;10250;50.756;6.172;2022-07-23T01:18:28;16.40;99.90
20182;DHT22;10250;50.756;6.172;2022-07-23T01:20:30;16.40;99.90
20182;DHT22;10250;50.756;6.172;2022-07-23T01:22:30;16.40;99.90
20182;DHT22;10250;50.756;6.172;2022-07-23T01:24:31;16.30;99.90
20182;DHT22;10250;50.756;6.172;2022-07-23T01:26:32;16.30;99.90
20182;DHT22;10250;50.756;6.172;2022-07-23T01:28:32;16.20;99.90
20182;DHT22;10250;50.756;6.172;2022-07-23T01:30:33;16.10;99.90
20182;DHT22;10250;50.756;6.172;2022-07-23T01:32:33;16.10;99.90
20182;DHT22;10250;50.756;6.172;2022-07-23T01:34:34;16.20;99.90
20182;DHT22;10250;50.756;6.172;2022-07-23T01:36:36;16.00;99.90
20182;DHT22;10250;50.756;6.172;2022-07-23T01:38:37;16.00;99.90
20182;DHT22;10250;50.756;6.172;2022-07-23T01:40:37;16.00;99.90
20182;DHT22;10250;50.756;6.172;2022-07-23T01:42:38;15.90;99.90
20182;DHT22;10250;50.756;6.172;2022-07-23T01:44:39;15.80;99.90
20182;DHT22;10250;50.756;6.172;2022-07-23T01:46:39;15.80;99.90
20182;DHT22;10250;50.756;6.172;2022-07-23T01:48:40;15.80;99.90
20182;DHT22;10250;50.756;6.172;2022-07-23T01:50:41;15.90;99.90
20182;DHT22;10250;50.756;6.172;2022-07-23T01:52:41;15.90;99.90
20182;DHT22;10250;50.756;6.172;2022-07-23T01:54:42;15.80;99.90
20182;DHT22;10250;50.756;6.172;2022-07-23T01:56:43;15.90;99.90
20182;DHT22;10250;50.756;6.172;2022-07-23T01:58:43;15.80;99.90
20182;DHT22;10250;50.756;6.172;2022-07-23T02:00:44;15.80;99.90
20182;DHT22;10250;50.756;6.172;2022-07-23T02:02:44;15.80;99.90
20182;DHT22;10250;50.756;6.172;2022-07-23T02:04:45;15.80;99.90
20182;DHT22;10250;50.756;6.172;2022-07-23T02:06:46;15.80;99.90
20182;DHT22;10250;50.756;6.172;2022-07-23T02:08:46;15.70;99.90
20182;DHT22;10250;50.756;6.172;2022-07-23T02:10:47;15.70;99.90
20182;DHT22;10250;50.756;6.172;2022-07-23T02:12:48;15.70;99.90
20182;DHT22;10250;50.756;6.172;2022-07-23T02:14:49;15.70;99.90
20182;DHT22;10250;50.756;6.172;2022-07-23T02:16:49;15.70;99.90
20182;DHT22;10250;50.756;6.172;2022-07-23T02:18:50;15.70;99.90
20182;DHT22;10250;50.756;6.172;2022-07-23T02:20:51;15.70;99.90
20182;DHT22;10250;50.756;6.172;2022-07-23T02:22:51;15.60;99.90
20182;DHT22;10250;50.756;6.172;2022-07-23T02:24:52;15.50;99.90
20182;DHT22;10250;50.756;6.172;2022-07-23T02:26:53;15.60;99.90
20182;DHT22;10250;50.756;6.172;2022-07-23T02:28:53;15.50;99.90
20182;DHT22;10250;50.756;6.172;2022-07-23T02:30:54;15.50;99.90
20182;DHT22;10250;50.756;6.172;2022-07-23T02:32:55;15.50;99.90
20182;DHT22;10250;50.756;6.172;2022-07-23T02:34:55;15.50;99.90
20182;DHT22;10250;50.756;6.172;2022-07-23T02:36:56;15.50;99.90
20182;DHT22;10250;50.756;6.172;2022-07-23T02:38:57;15.50;99.90
20182;DHT22;10250;50.756;6.172;2022-07-23T02:40:58;15.50;99.90
20182;DHT22;10250;50.756;6.172;2022-07-23T02:42:59;15.50;99.90
20182;DHT22;10250;50.756;6.172;2022-07-23T02:44:59;15.50;99.90
20182;DHT22;10250;50.756;6.172;2022-07-23T02:47:00;15.50;99.90
20182;DHT22;10250;50.756;6.172;2022-07-23T02:49:01;15.50;99.90
20182;DHT22;10250;50.756;6.172;2022-07-23T02:51:01;15.40;99.90
20182;DHT22;10250;50.756;6.172;2022-07-23T02:53:02;15.40;99.90
20182;DHT22;10250;50.756;6.172;2022-07-23T02:55:03;15.40;99.90
20182;DHT22;10250;50.756;6.172;2022-07-23T02:57:04;15.40;99.90
20182;DHT22;10250;50.756;6.172;2022-07-23T02:59:05;15.40;99.90
20182;DHT22;10250;50.756;6.172;2022-07-23T03:01:05;15.50;99.90
20182;DHT22;10250;50.756;6.172;2022-07-23T03:03:06;15.40;99.90
20182;DHT22;10250;50.756;6.172;2022-07-23T03:05:08;15.40;99.90
20182;DHT22;10250;50.756;6.172;2022-07-23T03:07:09;15.40;99.90
20182;DHT22;10250;50.756;6.172;2022-07-23T03:09:09;15.40;99.90
20182;DHT22;10250;50.756;6.172;2022-07-23T03:11:10;15.30;99.90
20182;DHT22;10250;50.756;6.172;2022-07-23T03:13:13;15.30;99.90
20182;DHT22;10250;50.756;6.172;2022-07-23T03:15:14;15.20;99.90
20182;DHT22;10250;50.756;6.172;2022-07-23T03:17:14;15.20;99.90
20182;DHT22;10250;50.756;6.172;2022-07-23T03:19:15;15.30;99.90
20182;DHT22;10250;50.756;6.172;2022-07-23T03:21:17;15.10;99.90
20182;DHT22;10250;50.756;6.172;2022-07-23T03:23:17;15.10;99.90
20182;DHT22;10250;50.756;6.172;2022-07-23T03:25:18;15.00;99.90
20182;DHT22;10250;50.756;6.172;2022-07-23T03:27:19;15.00;99.90
20182;DHT22;10250;50.756;6.172;2022-07-23T03:29:20;15.00;99.90
20182;DHT22;10250;50.756;6.172;2022-07-23T03:31:20;15.00;99.90
20182;DHT22;10250;50.756;6.172;2022-07-23T03:33:21;15.00;99.90
20182;DHT22;10250;50.756;6.172;2022-07-23T03:35:22;15.00;99.90
20182;DHT22;10250;50.756;6.172;2022-07-23T03:37:22;15.00;99.90
20182;DHT22;10250;50.756;6.172;2022-07-23T03:39:23;15.00;99.90
20182;DHT22;10250;50.756;6.172;2022-07-23T03:41:24;15.00;99.90
20182;DHT22;10250;50.756;6.172;2022-07-23T03:43:24;15.00;99.90
20182;DHT22;10250;50.756;6.172;2022-07-23T03:45:26;15.00;99.90
20182;DHT22;10250;50.756;6.172;2022-07-23T03:47:26;14.90;99.90
20182;DHT22;10250;50.756;6.172;2022-07-23T03:49:27;14.90;99.90
20182;DHT22;10250;50.756;6.172;2022-07-23T03:51:28;14.90;99.90
20182;DHT22;10250;50.756;6.172;2022-07-23T03:53:28;14.90;99.90
20182;DHT22;10250;50.756;6.172;2022-07-23T03:55:29;14.90;99.90
20182;DHT22;10250;50.756;6.172;2022-07-23T03:57:30;15.00;99.90
20182;DHT22;10250;50.756;6.172;2022-07-23T03:59:30;15.00;99.90
20182;DHT22;10250;50.756;6.172;2022-07-23T04:01:31;15.00;99.90
20182;DHT22;10250;50.756;6.172;2022-07-23T04:03:32;15.00;99.90
20182;DHT22;10250;50.756;6.172;2022-07-23T04:05:33;15.00;99.90
20182;DHT22;10250;50.756;6.172;2022-07-23T04:07:33;15.10;99.90
20182;DHT22;10250;50.756;6.172;2022-07-23T04:09:34;15.20;99.90
20182;DHT22;10250;50.756;6.172;2022-07-23T04:11:34;15.10;99.90
20182;DHT22;10250;50.756;6.172;2022-07-23T04:13:35;15.20;99.90
20182;DHT22;10250;50.756;6.172;2022-07-23T04:15:36;15.10;99.90
20182;DHT22;10250;50.756;6.172;2022-07-23T04:17:37;15.10;99.90
20182;DHT22;10250;50.756;6.172;2022-07-23T04:19:38;15.10;99.90
20182;DHT22;10250;50.756;6.172;2022-07-23T04:21:41;15.10;99.90
20182;DHT22;10250;50.756;6.172;2022-07-23T04:23:42;15.10;99.90
20182;DHT22;10250;50.756;6.172;2022-07-23T04:25:42;15.20;99.90
20182;DHT22;10250;50.756;6.172;2022-07-23T04:27:43;15.10;99.90
20182;DHT22;10250;50.756;6.172;2022-07-23T04:29:44;15.10;99.90
20182;DHT22;10250;50.756;6.172;2022-07-23T04:31:44;15.10;99.90
20182;DHT22;10250;50.756;6.172;2022-07-23T04:33:45;15.10;99.90
20182;DHT22;10250;50.756;6.172;2022-07-23T04:35:45;15.10;99.90
20182;DHT22;10250;50.756;6.172;2022-07-23T04:37:46;15.10;99.90
20182;DHT22;10250;50.756;6.172;2022-07-23T04:39:47;15.10;99.90
20182;DHT22;10250;50.756;6.172;2022-07-23T04:41:47;15.20;99.90
20182;DHT22;10250;50.756;6.172;2022-07-23T04:43:48;15.10;99.90
20182;DHT22;10250;50.756;6.172;2022-07-23T04:45:48;15.30;99.90
20182;DHT22;10250;50.756;6.172;2022-07-23T04:47:49;15.30;99.90
20182;DHT22;10250;50.756;6.172;2022-07-23T04:49:50;15.20;99.90
20182;DHT22;10250;50.756;6.172;2022-07-23T04:51:51;15.20;99.90
20182;DHT22;10250;50.756;6.172;2022-07-23T04:53:51;15.30;99.90
20182;DHT22;10250;50.756;6.172;2022-07-23T04:55:52;15.30;99.90
20182;DHT22;10250;50.756;6.172;2022-07-23T04:57:52;15.40;99.90
20182;DHT22;10250;50.756;6.172;2022-07-23T04:59:53;15.40;99.90
20182;DHT22;10250;50.756;6.172;2022-07-23T05:01:54;15.50;99.90
20182;DHT22;10250;50.756;6.172;2022-07-23T05:05:59;15.60;99.90
20182;DHT22;10250;50.756;6.172;2022-07-23T05:08:00;15.60;99.90
20182;DHT22;10250;50.756;6.172;2022-07-23T05:10:00;15.50;99.90
20182;DHT22;10250;50.756;6.172;2022-07-23T05:12:01;15.60;99.90
20182;DHT22;10250;50.756;6.172;2022-07-23T05:14:02;15.70;99.90
20182;DHT22;10250;50.756;6.172;2022-07-23T05:16:02;15.60;99.90
20182;DHT22;10250;50.756;6.172;2022-07-23T05:18:03;15.60;99.90
20182;DHT22;10250;50.756;6.172;2022-07-23T05:20:04;15.70;99.90
20182;DHT22;10250;50.756;6.172;2022-07-23T05:22:05;15.70;99.90
20182;DHT22;10250;50.756;6.172;2022-07-23T05:24:06;15.60;99.90
20182;DHT22;10250;50.756;6.172;2022-07-23T05:26:06;15.60;99.90
20182;DHT22;10250;50.756;6.172;2022-07-23T05:28:07;15.70;99.90
20182;DHT22;10250;50.756;6.172;2022-07-23T05:30:08;15.70;99.90
20182;DHT22;10250;50.756;6.172;2022-07-23T05:32:09;15.80;99.90
20182;DHT22;10250;50.756;6.172;2022-07-23T05:34:09;15.80;99.90
20182;DHT22;10250;50.756;6.172;2022-07-23T05:36:10;15.90;99.90
20182;DHT22;10250;50.756;6.172;2022-07-23T05:38:10;15.80;99.90
20182;DHT22;10250;50.756;6.172;2022-07-23T05:40:11;15.90;99.90
20182;DHT22;10250;50.756;6.172;2022-07-23T05:42:12;15.90;99.90
20182;DHT22;10250;50.756;6.172;2022-07-23T05:44:12;15.80;99.90
20182;DHT22;10250;50.756;6.172;2022-07-23T05:46:13;15.90;99.90
20182;DHT22;10250;50.756;6.172;2022-07-23T05:48:14;15.80;99.90
20182;DHT22;10250;50.756;6.172;2022-07-23T05:50:15;15.90;99.90
20182;DHT22;10250;50.756;6.172;2022-07-23T05:52:16;15.90;99.90
20182;DHT22;10250;50.756;6.172;2022-07-23T05:54:17;16.10;99.90
20182;DHT22;10250;50.756;6.172;2022-07-23T05:56:18;16.30;99.90
20182;DHT22;10250;50.756;6.172;2022-07-23T05:58:19;16.40;99.90
20182;DHT22;10250;50.756;6.172;2022-07-23T06:00:19;16.50;99.90
20182;DHT22;10250;50.756;6.172;2022-07-23T06:02:20;16.40;99.90
20182;DHT22;10250;50.756;6.172;2022-07-23T06:04:21;16.50;99.90
20182;DHT22;10250;50.756;6.172;2022-07-23T06:06:21;16.50;99.90
20182;DHT22;10250;50.756;6.172;2022-07-23T06:08:22;16.60;99.90
20182;DHT22;10250;50.756;6.172;2022-07-23T06:10:22;16.70;99.90
20182;DHT22;10250;50.756;6.172;2022-07-23T06:12:23;16.80;99.90
20182;DHT22;10250;50.756;6.172;2022-07-23T06:14:24;17.00;99.90
20182;DHT22;10250;50.756;6.172;2022-07-23T06:16:25;17.10;99.90
20182;DHT22;10250;50.756;6.172;2022-07-23T06:18:26;17.20;99.90
20182;DHT22;10250;50.756;6.172;2022-07-23T06:20:26;17.30;99.90
20182;DHT22;10250;50.756;6.172;2022-07-23T06:22:27;17.40;99.90
20182;DHT22;10250;50.756;6.172;2022-07-23T06:24:27;17.80;99.90
20182;DHT22;10250;50.756;6.172;2022-07-23T06:26:28;17.90;99.90
20182;DHT22;10250;50.756;6.172;2022-07-23T06:28:28;17.90;99.90
20182;DHT22;10250;50.756;6.172;2022-07-23T06:30:29;17.80;99.90
20182;DHT22;10250;50.756;6.172;2022-07-23T06:32:30;17.90;99.90
20182;DHT22;10250;50.756;6.172;2022-07-23T06:34:30;18.00;99.90
20182;DHT22;10250;50.756;6.172;2022-07-23T06:36:31;17.90;99.90
20182;DHT22;10250;50.756;6.172;2022-07-23T06:38:31;17.90;99.90
20182;DHT22;10250;50.756;6.172;2022-07-23T06:40:32;17.90;99.90
20182;DHT22;10250;50.756;6.172;2022-07-23T06:42:32;17.90;99.90
20182;DHT22;10250;50.756;6.172;2022-07-23T06:44:33;18.00;99.90
20182;DHT22;10250;50.756;6.172;2022-07-23T06:46:34;18.20;99.90
20182;DHT22;10250;50.756;6.172;2022-07-23T06:48:34;18.10;99.90
20182;DHT22;10250;50.756;6.172;2022-07-23T06:50:36;18.00;99.90
20182;DHT22;10250;50.756;6.172;2022-07-23T06:52:36;18.00;99.90
20182;DHT22;10250;50.756;6.172;2022-07-23T06:54:37;17.90;99.90
20182;DHT22;10250;50.756;6.172;2022-07-23T06:56:37;17.80;99.90
20182;DHT22;10250;50.756;6.172;2022-07-23T06:58:38;18.00;99.90
20182;DHT22;10250;50.756;6.172;2022-07-23T07:00:39;18.00;99.90
20182;DHT22;10250;50.756;6.172;2022-07-23T07:02:40;18.10;99.90
20182;DHT22;10250;50.756;6.172;2022-07-23T07:04:40;18.10;99.90
20182;DHT22;10250;50.756;6.172;2022-07-23T07:06:41;18.30;99.90
20182;DHT22;10250;50.756;6.172;2022-07-23T07:08:41;18.50;99.90
20182;DHT22;10250;50.756;6.172;2022-07-23T07:10:43;18.50;99.90
20182;DHT22;10250;50.756;6.172;2022-07-23T07:12:44;18.50;99.90
20182;DHT22;10250;50.756;6.172;2022-07-23T07:14:44;18.50;99.90
20182;DHT22;10250;50.756;6.172;2022-07-23T07:16:45;18.50;99.90
20182;DHT22;10250;50.756;6.172;2022-07-23T07:18:45;18.70;99.90
20182;DHT22;10250;50.756;6.172;2022-07-23T07:20:46;18.90;99.90
20182;DHT22;10250;50.756;6.172;2022-07-23T07:22:47;19.00;99.90
20182;DHT22;10250;50.756;6.172;2022-07-23T07:24:47;19.00;99.90
20182;DHT22;10250;50.756;6.172;2022-07-23T07:26:48;19.10;99.90
20182;DHT22;10250;50.756;6.172;2022-07-23T07:28:48;19.30;99.90
20182;DHT22;10250;50.756;6.172;2022-07-23T07:30:49;19.30;99.90
20182;DHT22;10250;50.756;6.172;2022-07-23T07:32:50;19.40;99.90
20182;DHT22;10250;50.756;6.172;2022-07-23T07:34:50;19.40;99.90
20182;DHT22;10250;50.756;6.172;2022-07-23T07:36:51;19.30;99.90
20182;DHT22;10250;50.756;6.172;2022-07-23T07:38:51;19.40;99.90
20182;DHT22;10250;50.756;6.172;2022-07-23T07:40:52;19.40;99.90
20182;DHT22;10250;50.756;6.172;2022-07-23T07:42:54;19.50;99.90
20182;DHT22;10250;50.756;6.172;2022-07-23T07:44:57;19.40;99.90
20182;DHT22;10250;50.756;6.172;2022-07-23T07:46:57;19.50;99.90
20182;DHT22;10250;50.756;6.172;2022-07-23T07:48:58;19.50;99.90
20182;DHT22;10250;50.756;6.172;2022-07-23T07:50:58;19.70;99.90
20182;DHT22;10250;50.756;6.172;2022-07-23T07:52:59;19.80;99.90
20182;DHT22;10250;50.756;6.172;2022-07-23T07:54:59;19.80;99.90
20182;DHT22;10250;50.756;6.172;2022-07-23T07:57:00;19.80;99.90
20182;DHT22;10250;50.756;6.172;2022-07-23T07:59:01;19.90;99.90
20182;DHT22;10250;50.756;6.172;2022-07-23T08:01:01;19.90;99.90
20182;DHT22;10250;50.756;6.172;2022-07-23T08:03:02;20.10;99.90
20182;DHT22;10250;50.756;6.172;2022-07-23T08:05:03;20.10;99.90
20182;DHT22;10250;50.756;6.172;2022-07-23T08:07:04;20.20;99.90
20182;DHT22;10250;50.756;6.172;2022-07-23T08:09:04;20.00;99.90
20182;DHT22;10250;50.756;6.172;2022-07-23T08:11:05;19.60;99.90
20182;DHT22;10250;50.756;6.172;2022-07-23T08:13:06;19.30;99.90
20182;DHT22;10250;50.756;6.172;2022-07-23T08:15:07;19.20;99.90
20182;DHT22;10250;50.756;6.172;2022-07-23T08:17:08;19.30;99.90
20182;DHT22;10250;50.756;6.172;2022-07-23T08:19:08;19.60;99.90
20182;DHT22;10250;50.756;6.172;2022-07-23T08:21:09;19.60;99.90
20182;DHT22;10250;50.756;6.172;2022-07-23T08:23:09;19.50;99.90
20182;DHT22;10250;50.756;6.172;2022-07-23T08:25:10;19.50;99.90
20182;DHT22;10250;50.756;6.172;2022-07-23T08:27:11;19.30;99.90
20182;DHT22;10250;50.756;6.172;2022-07-23T08:29:11;19.30;99.90
20182;DHT22;10250;50.756;6.172;2022-07-23T08:31:12;19.40;99.90
20182;DHT22;10250;50.756;6.172;2022-07-23T08:33:17;19.40;99.90
20182;DHT22;10250;50.756;6.172;2022-07-23T08:35:23;19.50;99.90
20182;DHT22;10250;50.756;6.172;2022-07-23T08:37:23;19.40;99.90
20182;DHT22;10250;50.756;6.172;2022-07-23T08:39:24;19.40;99.90
20182;DHT22;10250;50.756;6.172;2022-07-23T08:41:25;19.30;99.90
20182;DHT22;10250;50.756;6.172;2022-07-23T08:43:30;19.30;99.90
20182;DHT22;10250;50.756;6.172;2022-07-23T08:45:36;19.30;99.90
20182;DHT22;10250;50.756;6.172;2022-07-23T08:47:37;19.30;99.90
20182;DHT22;10250;50.756;6.172;2022-07-23T08:49:39;19.30;99.90
20182;DHT22;10250;50.756;6.172;2022-07-23T08:51:40;19.50;99.90
20182;DHT22;10250;50.756;6.172;2022-07-23T08:53:42;19.70;99.90
20182;DHT22;10250;50.756;6.172;2022-07-23T08:55:49;19.80;99.90
20182;DHT22;10250;50.756;6.172;2022-07-23T08:57:52;19.90;99.90
20182;DHT22;10250;50.756;6.172;2022-07-23T08:59:52;19.70;99.90
20182;DHT22;10250;50.756;6.172;2022-07-23T09:01:53;19.70;99.90
20182;DHT22;10250;50.756;6.172;2022-07-23T09:03:54;19.80;99.90
20182;DHT22;10250;50.756;6.172;2022-07-23T09:05:55;19.90;99.90
20182;DHT22;10250;50.756;6.172;2022-07-23T09:08:09;19.90;99.90
20182;DHT22;10250;50.756;6.172;2022-07-23T09:10:11;20.20;99.90
20182;DHT22;10250;50.756;6.172;2022-07-23T09:12:12;20.30;99.90
20182;DHT22;10250;50.756;6.172;2022-07-23T09:14:12;20.20;99.90
20182;DHT22;10250;50.756;6.172;2022-07-23T09:16:18;20.20;99.90
20182;DHT22;10250;50.756;6.172;2022-07-23T09:18:31;20.40;99.90
20182;DHT22;10250;50.756;6.172;2022-07-23T09:20:32;20.50;99.90
20182;DHT22;10250;50.756;6.172;2022-07-23T09:22:33;20.30;99.90
20182;DHT22;10250;50.756;6.172;2022-07-23T09:24:33;20.30;99.90
20182;DHT22;10250;50.756;6.172;2022-07-23T09:26:45;20.30;99.90
20182;DHT22;10250;50.756;6.172;2022-07-23T09:31:13;20.40;99.90
20182;DHT22;10250;50.756;6.172;2022-07-23T09:33:15;20.20;99.90
20182;DHT22;10250;50.756;6.172;2022-07-23T09:35:15;20.30;99.90
20182;DHT22;10250;50.756;6.172;2022-07-23T09:37:18;20.60;99.90
20182;DHT22;10250;50.756;6.172;2022-07-23T09:39:42;20.60;99.90
20182;DHT22;10250;50.756;6.172;2022-07-23T09:41:45;20.50;99.90
20182;DHT22;10250;50.756;6.172;2022-07-23T09:43:46;20.60;99.90
20182;DHT22;10250;50.756;6.172;2022-07-23T09:45:48;20.70;99.90
20182;DHT22;10250;50.756;6.172;2022-07-23T09:47:49;20.70;99.90
20182;DHT22;10250;50.756;6.172;2022-07-23T09:50:09;20.80;99.90
20182;DHT22;10250;50.756;6.172;2022-07-23T09:52:11;20.80;99.90
20182;DHT22;10250;50.756;6.172;2022-07-23T09:56:21;21.00;99.90
20182;DHT22;10250;50.756;6.172;2022-07-23T09:58:23;21.00;99.90
20182;DHT22;10250;50.756;6.172;2022-07-23T10:00:26;21.00;99.90
20182;DHT22;10250;50.756;6.172;2022-07-23T10:02:28;21.00;99.90
20182;DHT22;10250;50.756;6.172;2022-07-23T10:04:32;20.90;99.90
20182;DHT22;10250;50.756;6.172;2022-07-23T10:06:33;21.00;99.90
20182;DHT22;10250;50.756;6.172;2022-07-23T10:08:35;21.00;99.90
20182;DHT22;10250;50.756;6.172;2022-07-23T10:10:36;21.00;99.90
20182;DHT22;10250;50.756;6.172;2022-07-23T10:12:39;21.00;99.90
20182;DHT22;10250;50.756;6.172;2022-07-23T10:14:43;21.10;99.90
20182;DHT22;10250;50.756;6.172;2022-07-23T10:16:44;21.10;99.90
20182;DHT22;10250;50.756;6.172;2022-07-23T10:18:45;21.20;99.90
20182;DHT22;10250;50.756;6.172;2022-07-23T10:20:47;21.20;99.90
20182;DHT22;10250;50.756;6.172;2022-07-23T10:23:05;21.10;99.90
20182;DHT22;10250;50.756;6.172;2022-07-23T10:25:47;21.00;99.90
20182;DHT22;10250;50.756;6.172;2022-07-23T10:31:00;21.30;99.90
20182;DHT22;10250;50.756;6.172;2022-07-23T10:33:25;21.50;99.90
20182;DHT22;10250;50.756;6.172;2022-07-23T10:37:32;21.30;99.90
20182;DHT22;10250;50.756;6.172;2022-07-23T10:39:35;21.30;99.90
20182;DHT22;10250;50.756;6.172;2022-07-23T10:41:38;21.40;99.90
20182;DHT22;10250;50.756;6.172;2022-07-23T10:43:41;21.40;99.90
20182;DHT22;10250;50.756;6.172;2022-07-23T10:45:42;21.50;99.90
20182;DHT22;10250;50.756;6.172;2022-07-23T10:47:42;21.40;99.90
20182;DHT22;10250;50.756;6.172;2022-07-23T10:49:44;21.40;99.90
20182;DHT22;10250;50.756;6.172;2022-07-23T10:54:22;21.40;99.90
20182;DHT22;10250;50.756;6.172;2022-07-23T10:59:03;21.40;99.90
20182;DHT22;10250;50.756;6.172;2022-07-23T11:01:34;21.60;99.90
20182;DHT22;10250;50.756;6.172;2022-07-23T11:03:35;21.60;99.90
20182;DHT22;10250;50.756;6.172;2022-07-23T11:05:44;21.70;99.90
20182;DHT22;10250;50.756;6.172;2022-07-23T11:10:04;21.70;99.90
20182;DHT22;10250;50.756;6.172;2022-07-23T11:15:01;21.90;99.90
20182;DHT22;10250;50.756;6.172;2022-07-23T11:17:01;21.80;99.90
20182;DHT22;10250;50.756;6.172;2022-07-23T11:19:05;21.80;99.90
20182;DHT22;10250;50.756;6.172;2022-07-23T11:23:22;21.90;99.90
20182;DHT22;10250;50.756;6.172;2022-07-23T11:27:43;22.10;99.90
20182;DHT22;10250;50.756;6.172;2022-07-23T11:29:45;22.10;99.90
20182;DHT22;10250;50.756;6.172;2022-07-23T11:31:55;22.10;99.90
20182;DHT22;10250;50.756;6.172;2022-07-23T11:36:28;22.10;99.90
20182;DHT22;10250;50.756;6.172;2022-07-23T11:38:30;22.10;99.90
20182;DHT22;10250;50.756;6.172;2022-07-23T11:40:31;22.20;99.90
20182;DHT22;10250;50.756;6.172;2022-07-23T11:42:32;22.30;99.90
20182;DHT22;10250;50.756;6.172;2022-07-23T11:44:38;22.30;99.90
20182;DHT22;10250;50.756;6.172;2022-07-23T11:46:39;22.20;99.90
20182;DHT22;10250;50.756;6.172;2022-07-23T11:48:40;22.20;99.90
20182;DHT22;10250;50.756;6.172;2022-07-23T11:50:41;22.20;99.90
20182;DHT22;10250;50.756;6.172;2022-07-23T11:52:41;22.20;99.90
20182;DHT22;10250;50.756;6.172;2022-07-23T11:55:01;22.20;99.90
20182;DHT22;10250;50.756;6.172;2022-07-23T11:57:03;22.10;99.90
20182;DHT22;10250;50.756;6.172;2022-07-23T11:59:04;22.20;99.90
20182;DHT22;10250;50.756;6.172;2022-07-23T12:01:06;22.10;99.90
20182;DHT22;10250;50.756;6.172;2022-07-23T12:03:07;22.30;99.90
20182;DHT22;10250;50.756;6.172;2022-07-23T12:05:11;22.30;99.90
20182;DHT22;10250;50.756;6.172;2022-07-23T12:07:36;22.30;99.90
20182;DHT22;10250;50.756;6.172;2022-07-23T12:09:37;22.30;99.90
20182;DHT22;10250;50.756;6.172;2022-07-23T12:11:38;22.40;99.90
20182;DHT22;10250;50.756;6.172;2022-07-23T12:13:39;22.40;99.90
20182;DHT22;10250;50.756;6.172;2022-07-23T12:15:46;22.40;99.90
20182;DHT22;10250;50.756;6.172;2022-07-23T12:17:47;22.50;99.90
20182;DHT22;10250;50.756;6.172;2022-07-23T12:19:48;22.50;99.90
20182;DHT22;10250;50.756;6.172;2022-07-23T12:21:50;22.50;99.90
20182;DHT22;10250;50.756;6.172;2022-07-23T12:23:50;22.60;99.90
20182;DHT22;10250;50.756;6.172;2022-07-23T12:25:52;22.50;99.90
20182;DHT22;10250;50.756;6.172;2022-07-23T12:30:26;22.60;99.90
20182;DHT22;10250;50.756;6.172;2022-07-23T12:32:28;22.40;99.90
20182;DHT22;10250;50.756;6.172;2022-07-23T12:34:29;22.40;99.90
20182;DHT22;10250;50.756;6.172;2022-07-23T12:36:39;22.40;99.90
20182;DHT22;10250;50.756;6.172;2022-07-23T12:38:51;22.60;99.90
20182;DHT22;10250;50.756;6.172;2022-07-23T12:40:57;22.60;99.90
20182;DHT22;10250;50.756;6.172;2022-07-23T12:43:00;22.50;99.90
20182;DHT22;10250;50.756;6.172;2022-07-23T12:45:10;22.40;99.90
20182;DHT22;10250;50.756;6.172;2022-07-23T12:47:11;22.40;99.90
20182;DHT22;10250;50.756;6.172;2022-07-23T12:49:25;22.60;99.90
20182;DHT22;10250;50.756;6.172;2022-07-23T12:51:28;22.60;99.90
20182;DHT22;10250;50.756;6.172;2022-07-23T12:55:38;22.90;99.90
20182;DHT22;10250;50.756;6.172;2022-07-23T12:57:45;22.80;99.90
20182;DHT22;10250;50.756;6.172;2022-07-23T12:59:47;22.80;99.90
20182;DHT22;10250;50.756;6.172;2022-07-23T13:01:57;22.80;99.90
20182;DHT22;10250;50.756;6.172;2022-07-23T13:04:09;22.80;99.90
20182;DHT22;10250;50.756;6.172;2022-07-23T13:06:10;22.90;99.90
20182;DHT22;10250;50.756;6.172;2022-07-23T13:08:11;23.00;99.90
20182;DHT22;10250;50.756;6.172;2022-07-23T13:10:12;23.10;99.90
20182;DHT22;10250;50.756;6.172;2022-07-23T13:12:12;23.10;99.90
20182;DHT22;10250;50.756;6.172;2022-07-23T13:14:14;23.20;99.90
20182;DHT22;10250;50.756;6.172;2022-07-23T13:16:15;23.20;99.90
20182;DHT22;10250;50.756;6.172;2022-07-23T13:18:15;23.20;99.90
20182;DHT22;10250;50.756;6.172;2022-07-23T13:20:17;23.20;99.90
20182;DHT22;10250;50.756;6.172;2022-07-23T13:22:17;23.20;99.90
20182;DHT22;10250;50.756;6.172;2022-07-23T13:24:18;23.20;99.90